Flight Track Log - Related Links

Times and Time Zones

All times are in EDT time to prevent confusion due to time zone crossing. See the N830QS flight status page for this flight to view local times or setup timezone preferences in your user account.

Time Position Orientation Groundspeed Altitude Reporting Facility
EDT Latitude Longitude Course Direction KTS MPH feet Rate Location/Type
Tue 10:58:11 AM 39.7000 -86.3000 207° Southwest 166 191 1,600  Level Indianapolis TRACON
Tue 10:59:11 AM 39.6500 -86.3333 207° Southwest 229 264 3,000 1,864 Climbing Indianapolis TRACON
Tue 11:00:23 AM 39.5717 -86.3306 178° South 246 283 5,700 2,866 Climbing Indianapolis Center
Tue 11:01:25 AM 39.5003 -86.3236 176° South 253 291 9,400 3,463 Climbing Indianapolis Center
Tue 11:02:26 AM 39.4222 -86.3156 175° South 274 315 12,800 2,878 Climbing Indianapolis Center
Tue 11:03:28 AM 39.3442 -86.3078 176° South 281 323 15,300 2,274 Climbing Indianapolis Center
Tue 11:04:30 AM 39.2575 -86.2992 176° South 307 353 17,500 2,049 Climbing Indianapolis Center
Tue 11:05:31 AM 39.1664 -86.2892 175° South 325 374 19,500 1,951 Climbing Indianapolis Center
Tue 11:06:33 AM 39.0706 -86.2794 175° South 343 395 21,500 1,694 Climbing Indianapolis Center
Tue 11:07:35 AM 38.9556 -86.2675 175° South 346 398 23,000 1,171 Climbing Indianapolis Center
Tue 11:08:36 AM 38.8558 -86.2583 176° South 355 409 23,900 1,463 Climbing Indianapolis Center
Tue 11:09:38 AM 38.7639 -86.2483 175° South 341 392 26,000 1,742 Climbing Indianapolis Center
Tue 11:10:40 AM 38.6764 -86.2378 175° South 317 365 27,500 1,317 Climbing Indianapolis Center
Tue 11:11:41 AM 38.5872 -86.2278 175° South 318 366 28,700 1,171 Climbing Indianapolis Center
Tue 11:12:43 AM 38.4886 -86.2181 176° South 347 399 29,900 1,073 Climbing Indianapolis Center
Tue 11:13:44 AM 38.3853 -86.1989 172° South 366 421 30,900 976 Climbing Indianapolis Center
Tue 11:14:46 AM 38.2789 -86.1694 168° South 385 443 31,900 1,210 Climbing Indianapolis Center
Tue 11:15:48 AM 38.1719 -86.1369 167° South 391 450 33,400 1,610 Climbing Indianapolis Center
Tue 11:16:49 AM 38.0519 -86.0622 154° Southeast 396 456 35,200 1,561 Climbing Indianapolis Center
Tue 11:17:51 AM 37.9519 -86.0006 154° Southeast 397 457 36,600 1,258 Climbing Indianapolis Center
Tue 11:18:53 AM 37.8517 -85.9392 154° Southeast 397 457 37,800 1,024 Climbing Indianapolis Center
Tue 11:19:54 AM 37.7492 -85.8750 154° Southeast 405 466 38,700 732 Climbing Indianapolis Center
Tue 11:20:56 AM 37.6419 -85.8106 155° Southeast 418 481 39,300 581 Climbing Indianapolis Center
Tue 11:21:58 AM 37.5311 -85.7428 154° Southeast 433 498 39,900 537 Climbing Indianapolis Center
Tue 11:22:59 AM 37.4219 -85.6731 153° Southeast 436 502 40,400 488 Climbing Indianapolis Center
Tue 11:24:01 AM 37.3092 -85.6047 154° Southeast 447 514 40,900 290 Climbing Indianapolis Center
Tue 11:25:03 AM 37.1767 -85.5281 155° Southeast 453 521 41,000 49 Climbing Indianapolis Center
Tue 11:26:04 AM 37.0622 -85.4944 167° South 440 506 41,000  Level Indianapolis Center
Tue 11:27:06 AM 36.9264 -85.4500 165° South 452 520 41,000  Level Indianapolis Center
Tue 11:28:08 AM 36.8033 -85.4092 165° South 457 526 41,000  Level Indianapolis Center
Tue 11:29:10 AM 36.6794 -85.3706 166° South 458 527 41,000  Level Indianapolis Center
Tue 11:30:11 AM 36.5561 -85.3311 166° South 458 527 41,000  Level Indianapolis Center
Tue 11:31:13 AM 36.4317 -85.2917 166° South 461 531 41,000  Level Indianapolis Center
Tue 11:32:15 AM 36.3056 -85.2517 166° South 466 536 41,000  Level Indianapolis Center
Tue 11:33:17 AM 36.1542 -85.2050 166° South 469 540 41,000  Level Indianapolis Center
Tue 11:34:19 AM 36.0292 -85.1664 166° South 469 540 41,000  Level Indianapolis Center
Tue 11:35:20 AM 35.8969 -85.1228 165° South 473 544 41,000  Level Indianapolis Center
Tue 11:36:22 AM 35.7675 -85.0839 166° South 475 547 41,000  Level Indianapolis Center
Tue 11:37:24 AM 35.6517 -85.0494 166° South 476 548 41,000  Level Indianapolis Center
Tue 11:38:26 AM 35.5000 -85.0006 165° South 473 544 41,000  Level Indianapolis Center
Tue 11:39:43 AM 35.3497 -84.9556 166° South 469 540 41,000  Level Atlanta Center
Tue 11:40:43 AM 35.2208 -84.9158 166° South 469 540 41,000  Level Atlanta Center
Tue 11:41:43 AM 35.0936 -84.8764 166° South 469 540 41,000  Level Atlanta Center
Tue 11:42:43 AM 34.9644 -84.8397 167° South 469 540 41,000  Level Atlanta Center
Tue 11:43:43 AM 34.8333 -84.8006 166° South 474 545 41,000  Level Atlanta Center
Tue 11:44:43 AM 34.7022 -84.7589 165° South 474 545 41,000  Level Atlanta Center
Tue 11:45:43 AM 34.5792 -84.7175 165° South 469 540 41,000  Level Atlanta Center
Tue 11:46:43 AM 34.4500 -84.6811 167° South 474 545 41,000  Level Atlanta Center
Tue 11:47:43 AM 34.3189 -84.6400 165° South 474 545 41,000  Level Atlanta Center
Tue 11:48:43 AM 34.1792 -84.6011 167° South 479 551 41,000  Level Atlanta Center
Tue 11:49:43 AM 34.0561 -84.5653 166° South 488 562 41,000  Level Atlanta Center
Tue 11:50:43 AM 33.9289 -84.5269 166° South 488 562 41,000  Level Atlanta Center
Tue 11:51:43 AM 33.7872 -84.4861 167° South 481 554 41,000  Level Atlanta Center
Tue 11:52:43 AM 33.6683 -84.4506 166° South 481 554 41,000  Level Atlanta Center
Tue 11:53:43 AM 33.5369 -84.4375 175° South 487 560 41,000  Level Atlanta Center
Tue 11:54:43 AM 33.4075 -84.4344 179° South 473 544 41,000  Level Atlanta Center
Tue 11:55:43 AM 33.2781 -84.4339 180° South 473 544 41,000  Level Atlanta Center
Tue 11:56:43 AM 33.1361 -84.4333 180° South 467 537 41,000  Level Atlanta Center
Tue 11:57:43 AM 33.0047 -84.4278 178° South 467 537 41,000  Level Atlanta Center
Tue 11:58:43 AM 32.8753 -84.4247 179° South 467 537 41,000  Level Atlanta Center
Tue 11:59:43 AM 32.7606 -84.4217 179° South 470 541 41,000  Level Atlanta Center
Tue 12:00:43 PM 32.6269 -84.4211 180° South 470 541 41,000  Level Atlanta Center
Tue 12:01:43 PM 32.4975 -84.4156 178° South 470 541 41,000  Level Atlanta Center
Tue 12:02:43 PM 32.3681 -84.4103 178° South 470 541 41,000  Level Atlanta Center
Tue 12:05:05 PM 32.0594 -84.4075 180° South 485 558 41,000  Level Jacksonville Center
Tue 12:06:05 PM 31.9300 -84.4031 178° South 473 544 41,000  Level Jacksonville Center
Tue 12:07:05 PM 31.7983 -84.4033 180° South 473 544 41,000  Level Jacksonville Center
Tue 12:08:05 PM 31.6669 -84.4011 179° South 473 544 41,000  Level Jacksonville Center
Tue 12:09:04 PM 31.5375 -84.3967 178° South 473 544 41,000  Level Jacksonville Center
Tue 12:10:05 PM 31.4039 -84.3919 178° South 478 550 41,000  Level Jacksonville Center
Tue 12:11:05 PM 31.2725 -84.3850 177° South 478 550 41,000  Level Jacksonville Center
Tue 12:12:05 PM 31.1478 -84.3319 160° South 473 544 41,000  Level Jacksonville Center
Tue 12:13:05 PM 31.0233 -84.2744 158° South 473 544 41,000  Level Jacksonville Center
Tue 12:14:04 PM 30.8964 -84.2169 159° South 484 557 41,000  Level Jacksonville Center
Tue 12:15:04 PM 30.7717 -84.1572 158° South 484 557 41,000  Level Jacksonville Center
Tue 12:16:05 PM 30.6450 -84.0997 159° South 490 564 41,000  Level Jacksonville Center
Tue 12:17:05 PM 30.5119 -84.0356 157° South 490 564 41,000  Level Jacksonville Center
Tue 12:18:05 PM 30.3872 -83.9811 159° South 483 556 41,000  Level Jacksonville Center
Tue 12:19:05 PM 30.2622 -83.9267 159° South 483 556 41,000  Level Jacksonville Center
Tue 12:20:05 PM 30.1356 -83.8678 158° South 483 556 41,000  Level Jacksonville Center
Tue 12:21:05 PM 30.0086 -83.8111 159° South 488 562 41,000  Level Jacksonville Center
Tue 12:22:04 PM 29.8836 -83.7550 159° South 488 562 41,000  Level Jacksonville Center
Tue 12:23:05 PM 29.7567 -83.6989 159° South 488 562 41,000  Level Jacksonville Center
Tue 12:24:04 PM 29.6297 -83.6428 159° South 488 562 41,000  Level Jacksonville Center
Tue 12:25:05 PM 29.5047 -83.5869 159° South 488 562 41,000  Level Jacksonville Center
Tue 12:26:05 PM 29.3778 -83.5289 158° South 488 562 41,000  Level Jacksonville Center
Tue 12:27:05 PM 29.2528 -83.4733 159° South 488 562 41,000  Level Jacksonville Center
Tue 12:28:05 PM 29.1278 -83.4181 159° South 488 562 41,000  Level Jacksonville Center
Tue 12:29:05 PM 29.0131 -83.3650 158° South 493 567 41,000  Level Jacksonville Center
Tue 12:30:05 PM 28.8794 -83.3408 171° South 487 560 41,000 -206 Level Jacksonville Center
Tue 12:32:00 PM 28.6125 -83.3506 182° South 483 556 40,400 -926 Descending Miami Center
Tue 12:33:00 PM 28.4811 -83.3547 182° South 483 556 38,300 -2,083 Descending Miami Center
Tue 12:34:01 PM 28.3494 -83.3589 182° South 478 550 36,200 -1,650 Descending Miami Center
Tue 12:35:00 PM 28.2322 -83.3661 183° South 478 550 35,000 -605 Descending Miami Center
Tue 12:36:00 PM 28.1047 -83.3728 183° South 473 544 35,000  Level Miami Center
Tue 12:37:00 PM 27.9611 -83.3669 178° South 478 550 35,000 -50 Level Miami Center
Tue 12:38:00 PM 27.8300 -83.3642 179° South 478 550 34,900 -1,000 Descending Miami Center
Tue 12:39:00 PM 27.6986 -83.3614 179° South 478 550 33,000 -1,884 Descending Miami Center
Tue 12:40:01 PM 27.5736 -83.3614 180° South 472 543 31,100 -1,934 Descending Miami Center
Tue 12:41:01 PM 27.4500 -83.3239 165° South 453 521 29,100 -2,017 Descending Miami Center
Tue 12:42:00 PM 27.3525 -83.2225 137° Southeast 448 516 27,100 -2,000 Descending Miami Center
Tue 12:43:01 PM 27.2650 -83.1197 134° Southeast 443 510 25,100 -1,934 Descending Miami Center
Tue 12:44:01 PM 27.1797 -83.0172 133° Southeast 453 521 23,200 -1,916 Descending Miami Center
Tue 12:45:00 PM 27.0964 -82.9194 134° Southeast 445 512 21,300 -1,866 Descending Miami Center
Tue 12:46:00 PM 27.0189 -82.8269 133° Southeast 428 493 19,500 -1,750 Descending Miami Center
Tue 12:47:00 PM 26.9411 -82.7344 133° Southeast 415 478 17,800 -1,686 Descending Miami Center
Tue 12:48:01 PM 26.8653 -82.6469 134° Southeast 400 460 16,100 -1,636 Descending Miami Center
Tue 12:49:01 PM 26.7936 -82.5597 133° Southeast 393 452 14,500 -1,563 Descending Miami Center
Tue 12:50:00 PM 26.7278 -82.4819 133° Southeast 387 445 13,000 -1,513 Descending Miami Center
Tue 12:51:00 PM 26.6600 -82.4022 134° Southeast 372 428 11,500 -1,488 Descending Miami Center
Tue 12:52:01 PM 26.5831 -82.3358 142° Southeast 357 411 10,000 -744 Descending Miami Center
Tue 12:53:01 PM 26.5039 -82.2789 147° Southeast 352 405 10,000  Level Miami Center
Tue 12:54:01 PM 26.4206 -82.2194 147° Southeast 351 404 10,000 -650 Level Miami Center
Tue 12:55:01 PM 26.3456 -82.1603 145° Southeast 326 375 8,700 -1,500 Descending Miami Center
Tue 12:56:01 PM 26.2850 -82.1019 139° Southeast 303 349 7,000 -1,700 Descending Miami Center
Tue 12:57:01 PM 26.2414 -82.0353 126° Southeast 271 312 5,300 -1,700 Descending Miami Center
Tue 12:59:00 PM 26.0962 -81.9013 66° East  Level FlightAware Approximate
Tue 01:06:00 PM 26.1500 -81.7667 66° East  Level FlightAware Approximate
Tue 01:07:00 PM 26.1524 -81.7756 66° East  Level Estimated
Tue 01:08:00 PM 26.1524 -81.7756 66° East  Level Estimated
Tue 01:09:00 PM 26.1524 -81.7756 66° East  Level Estimated
Tue 01:10:00 PM 26.1524 -81.7756 66° East  Level Estimated

Login

Don't have an account? Register now (free) for customized features, flight alerts, and more!